AWOS - Automated Weather Observation System

 

0
0
0
0

 

AWOS from is a family of real-time weather observation systems specially designed to detect, report and disseminate weather conditions at airports. It intended use is for various sized of airports, ranging from small domestic landing strips or remotely operated airports to large international airports.

We can offer a turn-key solution including sensors, installation, training comissioning etc, or we can offer you just the customized software package and the rest is done by the customer himself or by a 3rd party. We can also offer the sensors preferred by the customer or we can use the sensors existing at the airport today and implement them in the new AWOS system.

Real Time Data from Combitech in Linköping

METAR CABX 301950Z AUTO 25010KT 200V300 9999 R01/P2000N R19///// NCD 11/06 Q0994

Linköping Sweden, Lat: 58.39172, Lon: 15.56505

 

 

 

 

 

Meet us at Meteorological Technology World Expo 2016

Combitech AWOS team members will be in Madrid Spain during Meteorological Technology World Expo at the 27-29..


Order from Arvidsjaur Airport

The northern airport of Arvidsjaur have awarded Combitec the contract for supply of AWOS7. Delivery is projected to..


Show all
2016-09-30 20:15:51